createdAt,value
2018-11-07T00:02:19.958Z,38.33
2018-11-07T00:04:52.499Z,37.50
2018-11-07T00:07:22.603Z,37.13
2018-11-07T00:09:52.675Z,40.27
2018-11-07T00:12:22.887Z,35.97
2018-11-07T00:14:52.954Z,41.50
2018-11-07T00:17:22.938Z,38.47
2018-11-07T00:19:52.890Z,38.43
2018-11-07T00:22:22.966Z,38.00
2018-11-07T00:24:52.981Z,34.33
2018-11-07T00:27:23.031Z,34.47
2018-11-07T00:29:53.097Z,33.03
2018-11-07T00:32:23.071Z,36.67
2018-11-07T00:34:53.155Z,36.07
2018-11-07T00:37:23.179Z,32.27
2018-11-07T00:39:53.173Z,42.47
2018-11-07T00:42:23.310Z,37.10
2018-11-07T00:44:53.294Z,39.60
2018-11-07T00:47:23.341Z,35.23
2018-11-07T00:49:53.360Z,37.03
2018-11-07T00:52:23.298Z,39.03
2018-11-07T00:54:53.397Z,37.50
2018-11-07T00:57:23.454Z,34.70
2018-11-07T00:59:53.527Z,36.87
2018-11-07T01:02:23.529Z,38.77
2018-11-07T01:04:53.580Z,35.80
2018-11-07T01:07:23.510Z,37.40
2018-11-07T01:09:53.550Z,37.20
2018-11-07T01:12:23.536Z,37.03
2018-11-07T01:14:53.524Z,32.47
2018-11-07T01:17:23.659Z,34.13
2018-11-07T01:19:53.734Z,39.93
2018-11-07T01:22:23.777Z,39.27
2018-11-07T01:24:53.823Z,35.90
2018-11-07T01:27:23.890Z,45.17
2018-11-07T01:29:53.956Z,43.70
2018-11-07T01:32:23.905Z,42.07
2018-11-07T01:34:53.933Z,41.93
2018-11-07T01:37:23.951Z,36.43
2018-11-07T01:39:53.801Z,41.63
2018-11-07T01:42:23.732Z,44.03
2018-11-07T01:44:53.709Z,35.93
2018-11-07T01:47:23.716Z,44.80
2018-11-07T01:49:53.712Z,42.70
2018-11-07T01:52:25.232Z,40.43
2018-11-07T01:54:55.359Z,42.57
2018-11-07T01:57:25.432Z,45.50
2018-11-07T01:59:55.401Z,41.47
2018-11-07T02:02:25.549Z,39.97
2018-11-07T02:04:55.529Z,38.83
2018-11-07T02:07:25.718Z,41.73
2018-11-07T02:09:55.753Z,41.40
2018-11-07T02:12:25.841Z,40.60
2018-11-07T02:14:56.552Z,46.80
2018-11-07T02:17:26.593Z,48.27
2018-11-07T02:19:56.639Z,39.10
2018-11-07T02:22:26.630Z,37.60
2018-11-07T02:24:57.386Z,34.83
2018-11-07T02:27:27.464Z,35.07
2018-11-07T02:29:57.511Z,36.07
2018-11-07T02:32:27.468Z,36.53
2018-11-07T02:34:57.562Z,37.10
2018-11-07T02:37:27.646Z,35.80
2018-11-07T02:39:57.648Z,34.57
2018-11-07T02:42:28.680Z,36.67
2018-11-07T02:44:58.684Z,37.80
2018-11-07T02:47:28.745Z,34.00
2018-11-07T02:49:58.763Z,40.03
2018-11-07T02:52:28.924Z,39.10
2018-11-07T02:54:58.947Z,34.40
2018-11-07T02:57:29.640Z,40.80
2018-11-07T02:59:59.615Z,38.70
2018-11-07T03:02:29.650Z,39.37
2018-11-07T03:04:59.680Z,39.70
2018-11-07T03:07:29.669Z,38.77
2018-11-07T03:09:59.760Z,38.07
2018-11-07T03:12:29.731Z,39.63
2018-11-07T03:14:59.734Z,38.10
2018-11-07T03:17:29.728Z,40.00
2018-11-07T03:19:59.718Z,38.17
2018-11-07T03:22:29.772Z,38.83
2018-11-07T03:24:59.770Z,38.00
2018-11-07T03:27:29.828Z,39.37
2018-11-07T03:29:59.875Z,37.27
2018-11-07T03:32:29.852Z,36.90
2018-11-07T03:34:59.870Z,32.13
2018-11-07T03:37:29.990Z,33.87
2018-11-07T03:40:00.064Z,35.30
2018-11-07T03:42:30.155Z,36.27
2018-11-07T03:45:00.127Z,37.57
2018-11-07T03:47:30.145Z,34.50
2018-11-07T03:50:00.195Z,35.70
2018-11-07T03:52:30.199Z,31.80
2018-11-07T03:55:00.354Z,36.70
2018-11-07T03:57:30.309Z,36.27
2018-11-07T04:00:00.288Z,36.67
2018-11-07T04:02:30.393Z,36.93
2018-11-07T04:05:00.344Z,36.87
2018-11-07T04:07:30.366Z,38.57
2018-11-07T04:10:00.372Z,39.60
2018-11-07T04:12:30.531Z,35.70
2018-11-07T04:15:00.550Z,37.43
2018-11-07T04:17:30.608Z,39.77
2018-11-07T04:20:00.627Z,40.60
2018-11-07T04:22:30.752Z,41.40
2018-11-07T04:25:00.725Z,39.70
2018-11-07T04:27:30.883Z,39.07
2018-11-07T04:30:03.043Z,39.27
2018-11-07T04:32:33.705Z,41.00
2018-11-07T04:35:04.020Z,39.63
2018-11-07T04:37:36.598Z,40.80
2018-11-07T04:40:09.276Z,42.83
2018-11-07T04:42:39.340Z,41.50
2018-11-07T04:45:09.448Z,45.53
2018-11-07T04:47:39.418Z,40.40
2018-11-07T04:50:10.747Z,41.33
2018-11-07T04:52:40.772Z,42.50
2018-11-07T04:55:10.907Z,40.83
2018-11-07T04:57:41.017Z,40.47
2018-11-07T05:00:12.296Z,39.97
2018-11-07T05:02:42.978Z,41.13
2018-11-07T05:05:13.100Z,36.27
2018-11-07T05:07:43.127Z,41.50
2018-11-07T05:10:13.329Z,37.70
2018-11-07T05:12:43.424Z,38.73
2018-11-07T05:15:13.584Z,34.63
2018-11-07T05:17:43.657Z,40.60
2018-11-07T05:20:13.764Z,35.47
2018-11-07T05:22:43.810Z,35.47
2018-11-07T05:25:13.955Z,37.63
2018-11-07T05:27:44.030Z,33.90
2018-11-07T05:30:14.051Z,34.73
2018-11-07T05:32:44.216Z,38.70
2018-11-07T05:35:16.666Z,32.63
2018-11-07T05:37:46.953Z,37.53
2018-11-07T05:40:18.179Z,31.83
2018-11-07T05:42:58.256Z,33.97
2018-11-07T05:45:30.285Z,32.53
2018-11-07T05:48:02.665Z,33.13
2018-11-07T05:50:32.701Z,36.63
2018-11-07T05:53:03.108Z,37.83
2018-11-07T05:55:34.470Z,35.27
2018-11-07T05:58:04.615Z,35.50
2018-11-07T06:00:34.730Z,30.43
2018-11-07T06:03:09.158Z,32.87
2018-11-07T06:05:39.223Z,34.93
2018-11-07T06:08:09.317Z,31.77
2018-11-07T06:10:39.431Z,34.33
2018-11-07T06:13:09.497Z,34.57
2018-11-07T06:15:42.171Z,30.60
2018-11-07T06:18:27.321Z,31.57
2018-11-07T06:20:58.048Z,32.97
2018-11-07T06:23:28.480Z,31.83
2018-11-07T06:26:04.544Z,42.40
2018-11-07T06:28:35.608Z,33.47
2018-11-07T06:31:17.569Z,35.53
2018-11-07T06:33:47.695Z,35.47
2018-11-07T06:36:17.746Z,36.93
2018-11-07T06:38:55.914Z,37.77
2018-11-07T06:41:25.992Z,35.40
2018-11-07T06:43:56.048Z,32.53
2018-11-07T06:46:26.169Z,35.33
2018-11-07T06:48:56.302Z,30.73
2018-11-07T06:51:26.365Z,29.63
2018-11-07T06:53:56.408Z,29.40
2018-11-07T06:56:26.455Z,29.73
2018-11-07T06:58:56.557Z,29.90
2018-11-07T07:01:26.668Z,29.73
2018-11-07T07:03:56.634Z,31.53
2018-11-07T07:06:26.690Z,29.23
2018-11-07T07:08:56.723Z,30.43
2018-11-07T07:11:39.709Z,32.20
2018-11-07T07:14:09.626Z,29.70
2018-11-07T07:16:39.702Z,31.43
2018-11-07T07:19:09.731Z,30.80
2018-11-07T07:21:40.675Z,26.90
2018-11-07T07:24:10.805Z,25.23
2018-11-07T07:26:40.846Z,23.63
2018-11-07T07:29:10.845Z,27.03
2018-11-07T07:31:40.977Z,30.20
2018-11-07T07:34:11.085Z,27.77
2018-11-07T07:36:41.136Z,25.17
2018-11-07T07:39:11.146Z,28.07
2018-11-07T07:41:41.133Z,28.33
2018-11-07T07:44:11.285Z,31.30
2018-11-07T07:46:41.305Z,28.00
2018-11-07T07:49:11.366Z,27.33
2018-11-07T07:51:41.275Z,26.70
2018-11-07T07:54:11.307Z,30.67
2018-11-07T07:56:41.440Z,27.83
2018-11-07T07:59:11.435Z,27.10
2018-11-07T08:01:41.482Z,23.77
2018-11-07T08:04:11.617Z,26.63
2018-11-07T08:06:41.718Z,22.33
2018-11-07T08:09:13.265Z,24.10
2018-11-07T08:11:43.308Z,25.03
2018-11-07T08:14:13.321Z,22.63
2018-11-07T08:16:43.247Z,22.93
2018-11-07T08:19:13.245Z,25.50
2018-11-07T08:21:43.244Z,24.70
2018-11-07T08:24:13.266Z,26.47
2018-11-07T08:26:43.392Z,23.90
2018-11-07T08:29:13.450Z,20.83
2018-11-07T08:31:43.546Z,24.93
2018-11-07T08:34:13.612Z,24.23
2018-11-07T08:36:43.631Z,21.37
2018-11-07T08:39:13.683Z,21.57
2018-11-07T08:41:43.668Z,20.20
2018-11-07T08:44:13.783Z,23.13
2018-11-07T08:46:43.867Z,22.80
2018-11-07T08:49:13.915Z,22.87
2018-11-07T08:51:43.980Z,18.90
2018-11-07T08:54:14.090Z,21.50
2018-11-07T08:56:44.159Z,20.70
2018-11-07T08:59:14.124Z,17.53
2018-11-07T09:01:44.182Z,16.90
2018-11-07T09:04:14.264Z,22.43
2018-11-07T09:06:44.363Z,21.00
2018-11-07T09:09:14.435Z,18.27
2018-11-07T09:11:44.574Z,20.33
2018-11-07T09:14:14.589Z,19.50
2018-11-07T09:16:44.598Z,22.13
2018-11-07T09:19:15.354Z,18.33
2018-11-07T09:21:45.386Z,19.67
2018-11-07T09:24:15.428Z,19.87
2018-11-07T09:26:45.468Z,19.50
2018-11-07T09:29:15.668Z,18.13
2018-11-07T09:31:45.652Z,16.33
2018-11-07T09:34:15.754Z,17.13
2018-11-07T09:36:45.839Z,19.50
2018-11-07T09:39:16.038Z,18.80
2018-11-07T09:41:46.092Z,19.43
2018-11-07T09:44:16.105Z,20.23
2018-11-07T09:46:46.145Z,22.13
2018-11-07T09:49:16.156Z,19.03
2018-11-07T09:51:46.819Z,18.47
2018-11-07T09:54:16.828Z,19.10
2018-11-07T09:56:46.816Z,19.83
2018-11-07T09:59:16.799Z,17.93
2018-11-07T10:01:46.813Z,16.73
2018-11-07T10:04:16.830Z,17.10
2018-11-07T10:06:46.827Z,19.40
2018-11-07T10:09:16.918Z,18.50
2018-11-07T10:11:46.945Z,17.50
2018-11-07T10:14:16.976Z,19.40
2018-11-07T10:16:47.075Z,17.23
2018-11-07T10:19:17.129Z,18.50
2018-11-07T10:21:47.201Z,18.40
2018-11-07T10:24:17.200Z,17.43
2018-11-07T10:26:47.260Z,17.87
2018-11-07T10:29:17.594Z,17.50
2018-11-07T10:31:47.332Z,20.43
2018-11-07T10:34:17.498Z,19.33
2018-11-07T10:36:47.640Z,18.77
2018-11-07T10:39:17.669Z,23.10
2018-11-07T10:41:47.631Z,23.33
2018-11-07T10:44:17.796Z,20.10
2018-11-07T10:46:47.856Z,21.60
2018-11-07T10:49:17.853Z,22.80
2018-11-07T10:51:47.895Z,21.07
2018-11-07T10:54:17.935Z,22.17
2018-11-07T10:56:47.921Z,21.20
2018-11-07T10:59:18.022Z,19.60
2018-11-07T11:01:52.995Z,22.07
2018-11-07T11:04:22.960Z,21.90
2018-11-07T11:06:55.514Z,22.13
2018-11-07T11:09:25.469Z,22.97
2018-11-07T11:11:56.189Z,20.70
2018-11-07T11:14:26.247Z,18.10
2018-11-07T11:16:56.366Z,22.07
2018-11-07T11:19:26.335Z,18.23
2018-11-07T11:21:56.253Z,23.70
2018-11-07T11:24:26.267Z,20.23
2018-11-07T11:26:56.295Z,21.57
2018-11-07T11:29:26.261Z,20.07
2018-11-07T11:31:56.351Z,19.07
2018-11-07T11:34:26.450Z,17.87
2018-11-07T11:36:56.285Z,18.90
2018-11-07T11:39:26.255Z,20.90
2018-11-07T11:41:56.311Z,20.17
2018-11-07T11:44:26.366Z,18.77
2018-11-07T11:46:56.467Z,19.87
2018-11-07T11:49:26.418Z,19.53
2018-11-07T11:51:56.511Z,19.67
2018-11-07T11:54:26.569Z,19.60
2018-11-07T11:56:56.529Z,19.20
2018-11-07T11:59:26.621Z,20.30
2018-11-07T12:01:56.622Z,19.00
2018-11-07T12:04:26.703Z,18.27
2018-11-07T12:06:56.659Z,21.67
2018-11-07T12:09:26.772Z,17.60
2018-11-07T12:11:57.359Z,19.23
2018-11-07T12:14:27.470Z,20.37
2018-11-07T12:16:57.525Z,17.17
2018-11-07T12:19:27.481Z,18.43
2018-11-07T12:21:57.483Z,16.37
2018-11-07T12:24:27.506Z,17.07
2018-11-07T12:26:57.500Z,15.23
2018-11-07T12:29:27.480Z,13.47
2018-11-07T12:31:57.596Z,15.23
2018-11-07T12:34:27.627Z,13.83
2018-11-07T12:36:57.709Z,13.43
2018-11-07T12:39:27.649Z,12.97
2018-11-07T12:41:57.633Z,13.30
2018-11-07T12:44:27.680Z,12.80
2018-11-07T12:46:57.751Z,13.20
2018-11-07T12:49:27.820Z,12.70
2018-11-07T12:51:58.054Z,15.60
2018-11-07T12:54:28.015Z,15.10
2018-11-07T12:56:58.094Z,13.43
2018-11-07T12:59:28.070Z,13.10
2018-11-07T13:01:58.077Z,15.13
2018-11-07T13:04:28.161Z,14.53
2018-11-07T13:06:58.165Z,15.37
2018-11-07T13:09:28.131Z,14.27
2018-11-07T13:11:58.221Z,15.67
2018-11-07T13:14:28.275Z,16.13
2018-11-07T13:16:58.790Z,14.10
2018-11-07T13:19:28.861Z,14.57
2018-11-07T13:21:58.761Z,16.50
2018-11-07T13:24:28.846Z,16.43
2018-11-07T13:26:58.990Z,15.47
2018-11-07T13:29:28.970Z,18.07
2018-11-07T13:31:58.903Z,16.87
2018-11-07T13:34:28.928Z,19.53
2018-11-07T13:36:59.021Z,19.37
2018-11-07T13:39:29.024Z,20.10
2018-11-07T13:41:58.987Z,18.10
2018-11-07T13:44:29.031Z,20.00
2018-11-07T13:46:59.106Z,19.80
2018-11-07T13:49:29.197Z,18.87
2018-11-07T13:51:59.264Z,21.83
2018-11-07T13:54:29.327Z,22.00
2018-11-07T13:56:59.443Z,22.13
2018-11-07T13:59:29.502Z,21.80
2018-11-07T14:01:59.457Z,20.73
2018-11-07T14:04:29.474Z,22.73
2018-11-07T14:06:59.561Z,18.80
2018-11-07T14:09:29.587Z,24.23
2018-11-07T14:11:59.578Z,20.67
2018-11-07T14:14:29.583Z,20.73
2018-11-07T14:16:59.638Z,19.93
2018-11-07T14:19:29.718Z,21.17
2018-11-07T14:21:59.787Z,22.27
2018-11-07T14:24:29.813Z,22.27
2018-11-07T14:26:59.911Z,24.40
2018-11-07T14:29:29.903Z,22.43
2018-11-07T14:32:00.233Z,21.90
2018-11-07T14:34:30.376Z,20.57
2018-11-07T14:37:00.442Z,20.67
2018-11-07T14:39:30.348Z,25.47
2018-11-07T14:42:00.303Z,23.17
2018-11-07T14:44:30.435Z,22.10
2018-11-07T14:47:00.469Z,24.77
2018-11-07T14:49:30.510Z,21.37
2018-11-07T14:52:00.514Z,24.67
2018-11-07T14:54:30.549Z,23.20
2018-11-07T14:57:00.469Z,25.90
2018-11-07T14:59:30.496Z,23.67
2018-11-07T15:02:00.772Z,25.17
2018-11-07T15:04:31.161Z,24.13
2018-11-07T15:07:01.720Z,26.47
2018-11-07T15:09:32.313Z,25.83
2018-11-07T15:12:02.841Z,25.93
2018-11-07T15:14:33.205Z,25.27
2018-11-07T15:17:03.736Z,23.10
2018-11-07T15:19:34.221Z,27.73
2018-11-07T15:22:04.896Z,27.50
2018-11-07T15:24:35.389Z,26.63
2018-11-07T15:27:06.255Z,26.10
2018-11-07T15:29:36.721Z,25.40
2018-11-07T15:32:07.574Z,27.87
2018-11-07T15:34:37.919Z,28.97
2018-11-07T15:37:08.646Z,26.40
2018-11-07T15:39:39.188Z,28.83
2018-11-07T15:42:09.676Z,29.13
2018-11-07T15:44:40.145Z,28.50
2018-11-07T15:47:10.751Z,30.30
2018-11-07T15:49:42.465Z,27.23
2018-11-07T15:52:13.242Z,30.83
2018-11-07T15:54:43.782Z,27.90
2018-11-07T15:57:14.385Z,29.30
2018-11-07T15:59:45.014Z,28.67
2018-11-07T16:02:15.425Z,27.47
2018-11-07T16:04:45.834Z,30.37
2018-11-07T16:07:16.299Z,29.63
2018-11-07T16:09:46.822Z,30.07
2018-11-07T16:12:17.202Z,31.63
2018-11-07T16:14:47.859Z,34.60
2018-11-07T16:17:18.419Z,31.67
2018-11-07T16:19:48.843Z,32.87
2018-11-07T16:22:20.637Z,30.17
2018-11-07T16:24:51.034Z,31.00
2018-11-07T16:27:21.481Z,30.60
2018-11-07T16:29:51.949Z,32.70
2018-11-07T16:32:22.511Z,30.07
2018-11-07T16:34:53.582Z,31.73
2018-11-07T16:37:24.465Z,35.60
2018-11-07T16:39:55.083Z,35.33
2018-11-07T16:42:25.547Z,34.77
2018-11-07T16:44:56.184Z,34.13
2018-11-07T16:47:26.768Z,36.60
2018-11-07T16:49:57.417Z,36.60
2018-11-07T16:52:28.174Z,35.90
2018-11-07T16:54:58.892Z,36.83
2018-11-07T16:57:30.041Z,35.53
2018-11-07T17:00:00.837Z,36.50
2018-11-07T17:02:31.522Z,39.27
2018-11-07T17:05:02.079Z,40.80
2018-11-07T17:07:33.376Z,38.10
2018-11-07T17:10:04.051Z,43.77
2018-11-07T17:12:35.068Z,47.53
2018-11-07T17:15:05.959Z,42.73
2018-11-07T17:17:36.726Z,54.93
2018-11-07T17:20:08.590Z,41.40
2018-11-07T17:22:39.168Z,38.83
2018-11-07T17:25:11.929Z,39.67
2018-11-07T17:27:43.049Z,39.53
2018-11-07T17:30:15.864Z,42.87
2018-11-07T17:32:46.310Z,38.97
2018-11-07T17:35:18.091Z,43.93
2018-11-07T17:37:48.797Z,41.80
2018-11-07T17:40:21.724Z,39.43
2018-11-07T17:42:52.738Z,38.90
2018-11-07T17:45:23.939Z,44.30
2018-11-07T17:47:54.589Z,40.53
2018-11-07T17:50:25.991Z,40.23
2018-11-07T17:52:56.626Z,37.90
2018-11-07T17:55:27.406Z,41.50
2018-11-07T17:57:59.108Z,36.83
2018-11-07T18:00:34.491Z,41.90
2018-11-07T18:03:05.108Z,42.10
2018-11-07T18:05:36.079Z,42.23
2018-11-07T18:08:06.817Z,45.37
2018-11-07T18:10:38.573Z,41.43
2018-11-07T18:13:09.187Z,41.87
2018-11-07T18:15:40.448Z,38.30
2018-11-07T18:18:10.835Z,39.57
2018-11-07T18:20:41.590Z,41.17
2018-11-07T18:23:12.159Z,39.27
2018-11-07T18:25:42.817Z,37.57
2018-11-07T18:28:14.293Z,44.47
2018-11-07T18:30:44.839Z,40.53
2018-11-07T18:33:15.470Z,38.50
2018-11-07T18:35:45.988Z,44.57
2018-11-07T18:38:16.577Z,41.63
2018-11-07T18:40:46.997Z,36.97
2018-11-07T18:43:17.910Z,43.50
2018-11-07T18:45:48.131Z,36.33
2018-11-07T18:48:22.194Z,39.67
2018-11-07T18:50:53.756Z,38.50
2018-11-07T18:53:24.395Z,40.57
2018-11-07T18:55:54.973Z,38.13
2018-11-07T18:58:25.414Z,39.27
2018-11-07T19:00:55.858Z,38.03
2018-11-07T19:03:26.713Z,39.37
2018-11-07T19:05:57.283Z,41.53
2018-11-07T19:08:27.769Z,40.37
2018-11-07T19:10:58.106Z,42.00
2018-11-07T19:13:28.737Z,44.23
2018-11-07T19:15:59.414Z,47.20
2018-11-07T19:18:29.973Z,42.33
2018-11-07T19:21:00.348Z,42.97
2018-11-07T19:23:30.992Z,40.63
2018-11-07T19:26:01.455Z,46.07
2018-11-07T19:28:31.935Z,47.00
2018-11-07T19:31:02.428Z,41.37
2018-11-07T19:33:32.880Z,44.57
2018-11-07T19:36:03.344Z,45.67
2018-11-07T19:38:33.809Z,46.43
2018-11-07T19:41:04.195Z,44.87
2018-11-07T19:43:34.691Z,45.17
2018-11-07T19:46:05.215Z,47.10
2018-11-07T19:48:36.122Z,46.07
2018-11-07T19:51:07.044Z,44.13
2018-11-07T19:53:37.482Z,43.40
2018-11-07T19:56:08.194Z,46.17
2018-11-07T19:58:38.945Z,44.63
2018-11-07T20:01:09.580Z,45.50
2018-11-07T20:03:40.153Z,40.10
2018-11-07T20:06:10.840Z,40.53
2018-11-07T20:08:41.355Z,41.10
2018-11-07T20:11:11.869Z,45.47
2018-11-07T20:13:42.426Z,43.40
2018-11-07T20:16:13.010Z,41.53
2018-11-07T20:18:42.735Z,47.70
2018-11-07T20:21:12.901Z,45.57
2018-11-07T20:23:43.023Z,45.70
2018-11-07T20:26:13.131Z,42.67
2018-11-07T20:28:43.255Z,49.73
2018-11-07T20:31:13.393Z,46.40
2018-11-07T20:33:43.535Z,47.43
2018-11-07T20:36:13.760Z,47.30
2018-11-07T20:38:43.732Z,47.20
2018-11-07T20:41:13.815Z,42.77
2018-11-07T20:43:43.801Z,48.77
2018-11-07T20:46:13.802Z,47.40
2018-11-07T20:48:44.079Z,38.60
2018-11-07T20:51:14.154Z,39.57
2018-11-07T20:53:44.213Z,44.07
2018-11-07T20:56:14.305Z,41.33
2018-11-07T20:58:44.389Z,42.73
2018-11-07T21:01:14.476Z,40.00
2018-11-07T21:03:44.770Z,38.40
2018-11-07T21:06:15.016Z,40.60
2018-11-07T21:08:45.108Z,45.57
2018-11-07T21:11:15.109Z,51.43
2018-11-07T21:13:45.141Z,43.63
2018-11-07T21:16:15.106Z,46.10
2018-11-07T21:18:45.232Z,49.00
2018-11-07T21:21:15.264Z,47.37
2018-11-07T21:23:45.642Z,37.57
2018-11-07T21:26:15.847Z,42.83
2018-11-07T21:28:45.842Z,66.57
2018-11-07T21:31:16.080Z,50.20
2018-11-07T21:33:46.196Z,49.47
2018-11-07T21:36:16.149Z,48.17
2018-11-07T21:38:46.241Z,56.47
2018-11-07T21:41:16.319Z,48.73
2018-11-07T21:43:47.506Z,52.43
2018-11-07T21:46:17.544Z,51.90
2018-11-07T21:48:47.572Z,43.77
2018-11-07T21:51:17.527Z,52.43
2018-11-07T21:53:47.609Z,43.80
2018-11-07T21:56:17.598Z,49.03
2018-11-07T21:58:47.797Z,47.07
2018-11-07T22:01:17.892Z,52.20
2018-11-07T22:03:48.963Z,57.60
2018-11-07T22:06:19.021Z,48.60
2018-11-07T22:08:49.043Z,44.97
2018-11-07T22:11:19.135Z,53.33
2018-11-07T22:13:50.187Z,45.13
2018-11-07T22:16:20.253Z,41.20
2018-11-07T22:18:50.235Z,44.37
2018-11-07T22:21:20.331Z,43.23
2018-11-07T22:23:50.395Z,38.03
2018-11-07T22:26:20.453Z,52.57
2018-11-07T22:28:51.590Z,54.40
2018-11-07T22:31:21.649Z,69.37
2018-11-07T22:33:51.765Z,68.37
2018-11-07T22:36:21.788Z,50.60
2018-11-07T22:38:51.713Z,46.33
2018-11-07T22:41:21.665Z,42.87
2018-11-07T22:43:51.737Z,33.40
2018-11-07T22:46:21.838Z,29.23
2018-11-07T22:48:51.514Z,33.07
2018-11-07T22:51:21.540Z,33.17
2018-11-07T22:53:51.543Z,34.50
2018-11-07T22:56:21.605Z,31.23
2018-11-07T22:58:51.616Z,30.30
2018-11-07T23:01:23.445Z,26.80
2018-11-07T23:03:55.521Z,28.20
2018-11-07T23:06:25.490Z,26.33
2018-11-07T23:08:55.471Z,26.13
2018-11-07T23:11:25.386Z,25.57
2018-11-07T23:13:55.450Z,26.60
2018-11-07T23:16:25.417Z,23.60
2018-11-07T23:18:55.487Z,26.90
2018-11-07T23:21:25.470Z,26.60
2018-11-07T23:23:55.462Z,26.00
2018-11-07T23:26:25.387Z,25.37
2018-11-07T23:28:55.364Z,28.30
2018-11-07T23:31:25.393Z,24.07
2018-11-07T23:33:55.436Z,24.97
2018-11-07T23:36:25.406Z,25.37
2018-11-07T23:38:55.414Z,26.40
2018-11-07T23:41:25.588Z,24.03
2018-11-07T23:43:55.607Z,25.37
2018-11-07T23:46:25.594Z,24.97
2018-11-07T23:48:55.658Z,22.70
2018-11-07T23:51:25.639Z,21.70
2018-11-07T23:53:55.699Z,21.27
2018-11-07T23:56:25.748Z,23.27
2018-11-07T23:58:55.740Z,22.30
